Saint Thomas, VI

2:38 PM AST on December 22, 2014 (GMT -0400)
NorthSide | Change Station
CLOSE
Current Station
Personal Weather Station
Location: St Thomas, VI
Elevation: 728 ft
Nearby Weather Stations

Elev 728 ft 18.36 °N, 64.94 °W | Updated 11 seconds ago

Partly Cloudy
Partly Cloudy
81.9 °F
Feels Like 87 °F
N
6.0
Wind Variable Wind from NE
Gusts 11.0 mph

Today
High -- | Low -- °F
--% Chance of Precip.
Yesterday
High -- | Low -- °F
Precip. -- in
6:47 AM 5:49 PM
New Moon, 1% visible
Pressure 30.03 in
Visibility 10.0 miles
Clouds Few 2300 ft
Heat Index 87 °F
Dew Point 72 °F
Humidity 72%
Rainfall 0.00 in
Snow Depth Not available.
UV 5 out of 12
Pollen Not available.
Air Quality Not available.
Flu Activity Not available.
METAR TJNR 221753Z AUTO 10010KT 10SM FEW023 29/23 A3002 RMK AO2 SLP167 T02890228 10294 20256 56019

More Conditions Fewer Conditions

Pressure 30.03 in
Visibility 10.0 miles
Clouds Few 2300 ft
Heat Index 87 °F
Dew Point 72 °F
Humidity 72%
Rainfall 0.00 in
Snow Depth Not available.
UV 5 out of 12
Pollen Not available.
Air Quality Not available.
Flu Activity Not available.
METAR TJNR 221753Z AUTO 10010KT 10SM FEW023 29/23 A3002 RMK AO2 SLP167 T02890228 10294 20256 56019

More Conditions Fewer Conditions

10-Day Weather Forecast

Almanac

Astronomy

Dec. 22, 2014 Rise Set
Actual Time
Civil Twilight
Nautical Twilight
Astronomical Twilight
Moon
Length of Visible Light
Length of Day
Tomorrow will be .
, % of the Moon is Illuminated

Today's Extremes

State Highs State Lows

Community

WunderPhotos

Upload Photos

1,779,671 photos uploaded!

WunderBlogs® & News

Nearby

Air Quality

  Air Quality AQ Index Pollutant
Not available.

Snow Depth

Station Depth Elevation

Earthquake Activity

City Distance Mag. Time & Date
Minimum magnitude displayed is 2.5.

Coastal Water Temperatures

Place Temperature

Nearby Weather Stations